Big Bear Station Historical Data
Daily Summary for February 11, 2019 Units:  English    Metric   Both
Next Day »
Daily Weekly Monthly Yearly Custom
  High: Low: Average:
Temperature: 45.5 °F 3.9 °F 19.4 °F
Dew Point: 26.9 °F 2.1 °F 12.9 °F
Humidity: 95% 23% 79%
Wind Speed: 4.7mph 0.0mph 0.3mph
Wind Gust: -999.0mph - -
Wind- - WNW
Pressure: 23.54 in 23.34 in -
Precipitation: 0.08 in    
Historical Graphs
 
 
Tabular Data for February 11, 2019
Time Temperature Dew Point Pressure Wind Wind Speed Wind Gust Humidity Rainfall Rate (Hourly)
00:04 14.4 °F 6.1 °F 23.34 in NNW 1.1 mph -999.0 mph 69% 0.00 in
00:19 12.6 °F 8.7 °F 23.35 in SE 1.7 mph -999.0 mph 84% 0.00 in
00:34 11.3 °F 7.7 °F 23.34 in Calm   -999.0 mph 85% 0.00 in
00:49 10.2 °F 6.8 °F 23.35 in Calm   -999.0 mph 86% 0.00 in
01:05 9.1 °F 6.3 °F 23.34 in Calm   -999.0 mph 88% 0.00 in
01:20 8.8 °F 6.2 °F 23.35 in Calm   -999.0 mph 89% 0.00 in
01:35 8.1 °F 5.8 °F 23.35 in Calm   -999.0 mph 90% 0.00 in
01:50 8.2 °F 6.1 °F 23.35 in Calm   -999.0 mph 91% 0.00 in
02:05 8.2 °F 6.1 °F 23.35 in Calm   -999.0 mph 91% 0.00 in
02:21 7.5 °F 5.4 °F 23.35 in Calm   -999.0 mph 91% 0.00 in
02:36 7.5 °F 4.9 °F 23.36 in Calm   -999.0 mph 89% 0.00 in
02:51 7.7 °F 4.4 °F 23.36 in Calm   -999.0 mph 86% 0.00 in
03:06 8.1 °F 4.5 °F 23.36 in Calm   -999.0 mph 85% 0.00 in
03:22 7.3 °F 4.5 °F 23.36 in Calm   -999.0 mph 88% 0.00 in
03:37 7.2 °F 4.1 °F 23.36 in Calm   -999.0 mph 87% 0.00 in
03:52 6.3 °F 3.5 °F 23.36 in Calm   -999.0 mph 88% 0.00 in
04:07 6.8 °F 4.5 °F 23.36 in Calm   -999.0 mph 90% 0.00 in
04:22 6.6 °F 4.3 °F 23.36 in Calm   -999.0 mph 90% 0.00 in
04:38 6.1 °F 3.8 °F 23.37 in Calm   -999.0 mph 90% 0.00 in
04:53 5.7 °F 3.4 °F 23.37 in Calm   -999.0 mph 90% 0.00 in
05:08 5.4 °F 3.1 °F 23.37 in Calm   -999.0 mph 90% 0.00 in
05:23 6.1 °F 4.0 °F 23.37 in Calm   -999.0 mph 91% 0.00 in
05:38 5.0 °F 2.9 °F 23.38 in Calm   -999.0 mph 91% 0.00 in
05:54 4.8 °F 3.0 °F 23.38 in Calm   -999.0 mph 92% 0.00 in
06:09 4.8 °F 3.2 °F 23.39 in Calm   -999.0 mph 93% 0.00 in
06:24 4.1 °F 2.3 °F 23.39 in Calm   -999.0 mph 92% 0.00 in
06:39 3.9 °F 2.1 °F 23.40 in Calm   -999.0 mph 92% 0.00 in
06:54 4.5 °F 3.2 °F 23.40 in Calm   -999.0 mph 94% 0.00 in
07:10 4.8 °F 3.5 °F 23.40 in Calm   -999.0 mph 94% 0.00 in
07:25 4.3 °F 2.7 °F 23.41 in Calm   -999.0 mph 93% 0.00 in
07:40 4.1 °F 2.5 °F 23.42 in Calm   -999.0 mph 93% 0.00 in
07:55 5.4 °F 3.8 °F 23.42 in Calm   -999.0 mph 93% 0.00 in
08:10 6.3 °F 4.7 °F 23.42 in Calm   -999.0 mph 93% 0.00 in
08:26 7.3 °F 5.7 °F 23.43 in Calm   -999.0 mph 93% 0.00 in
08:41 8.2 °F 6.4 °F 23.43 in Calm   -999.0 mph 92% 0.00 in
08:56 9.9 °F 8.0 °F 23.44 in Calm   -999.0 mph 92% 0.00 in
09:11 11.8 °F 9.9 °F 23.44 in Calm   -999.0 mph 92% 0.00 in
09:26 13.5 °F 11.4 °F 23.45 in Calm   -999.0 mph 91% 0.00 in
09:42 15.6 °F 13.2 °F 23.45 in Calm   -999.0 mph 90% 0.00 in
09:57 17.8 °F 14.3 °F 23.45 in Calm   -999.0 mph 86% 0.00 in
10:12 22.6 °F 14.6 °F 23.46 in Calm   -999.0 mph 71% 0.00 in
10:27 26.8 °F 19.0 °F 23.47 in Calm   -999.0 mph 72% 0.00 in
10:42 30.9 °F 23.9 °F 23.47 in Calm   -999.0 mph 75% 0.00 in
10:58 31.6 °F 20.4 °F 23.47 in Calm   -999.0 mph 63% 0.00 in
11:13 37.6 °F 15.4 °F 23.47 in NW 1.1 mph -999.0 mph 40% 0.00 in
11:28 39.7 °F 19.0 °F 23.47 in Calm   -999.0 mph 43% 0.00 in
11:43 39.2 °F 16.9 °F 23.47 in Calm   -999.0 mph 40% 0.00 in
11:59 41.0 °F 18.5 °F 23.47 in NW 2.2 mph -999.0 mph 40% 0.00 in
12:14 43.3 °F 16.1 °F 23.46 in NNW 2.2 mph -999.0 mph 33% 0.00 in
12:29 44.1 °F 18.8 °F 23.46 in NNW 1.7 mph -999.0 mph 36% 0.00 in
12:44 44.2 °F 16.9 °F 23.45 in Calm   -999.0 mph 33% 0.00 in
12:59 45.5 °F 13.4 °F 23.45 in Calm   -999.0 mph 27% 0.00 in
13:15 43.2 °F 7.9 °F 23.45 in NNW 2.7 mph -999.0 mph 23% 0.00 in
13:30 41.4 °F 11.5 °F 23.45 in Calm   -999.0 mph 29% 0.00 in
13:46 38.7 °F 21.6 °F 23.45 in WNW 2.2 mph -999.0 mph 50% 0.00 in
14:01 39.0 °F 18.9 °F 23.46 in WNW 2.7 mph -999.0 mph 44% 0.00 in
14:16 37.8 °F 25.9 °F 23.47 in NW 4.7 mph -999.0 mph 62% 0.00 in
14:31 37.2 °F 26.9 °F 23.47 in Calm   -999.0 mph 66% 0.00 in
14:46 35.8 °F 26.3 °F 23.47 in WNW 2.2 mph -999.0 mph 68% 0.00 in
15:02 35.4 °F 25.9 °F 23.47 in WNW 2.7 mph -999.0 mph 68% 0.00 in
15:17 36.1 °F 23.5 °F 23.47 in Calm   -999.0 mph 60% 0.00 in
15:32 35.6 °F 24.6 °F 23.46 in Calm   -999.0 mph 64% 0.00 in
15:47 35.4 °F 25.5 °F 23.46 in Calm   -999.0 mph 67% 0.00 in
16:02 34.7 °F 25.6 °F 23.47 in Calm   -999.0 mph 69% 0.00 in
16:18 34.0 °F 25.9 °F 23.47 in Calm   -999.0 mph 72% 0.00 in
16:33 33.3 °F 25.6 °F 23.46 in Calm   -999.0 mph 73% 0.00 in
16:48 32.0 °F 25.3 °F 23.46 in Calm   -999.0 mph 76% 0.00 in
17:03 30.6 °F 25.8 °F 23.46 in Calm   -999.0 mph 82% 0.00 in
17:19 29.5 °F 24.4 °F 23.46 in Calm   -999.0 mph 81% 0.00 in
17:34 27.9 °F 23.4 °F 23.47 in Calm   -999.0 mph 83% 0.00 in
17:49 25.9 °F 21.7 °F 23.46 in Calm   -999.0 mph 84% 0.00 in
18:04 25.2 °F 20.2 °F 23.47 in Calm   -999.0 mph 81% 0.00 in
18:19 24.3 °F 19.3 °F 23.48 in Calm   -999.0 mph 81% 0.00 in
18:35 23.2 °F 18.8 °F 23.48 in Calm   -999.0 mph 83% 0.00 in
18:50 22.3 °F 18.5 °F 23.49 in Calm   -999.0 mph 85% 0.00 in
19:05 21.4 °F 17.9 °F 23.50 in Calm   -999.0 mph 86% 0.00 in
19:20 20.8 °F 17.8 °F 23.50 in Calm   -999.0 mph 88% 0.00 in
19:35 20.3 °F 17.6 °F 23.50 in Calm   -999.0 mph 89% 0.00 in
19:51 19.4 °F 16.9 °F 23.51 in Calm   -999.0 mph 90% 0.00 in
20:06 18.9 °F 16.5 °F 23.51 in Calm   -999.0 mph 90% 0.00 in
20:21 18.3 °F 16.1 °F 23.51 in Calm   -999.0 mph 91% 0.00 in
20:36 17.6 °F 15.4 °F 23.51 in Calm   -999.0 mph 91% 0.00 in
20:51 17.8 °F 15.1 °F 23.52 in Calm   -999.0 mph 89% 0.00 in
21:07 17.1 °F 14.7 °F 23.52 in Calm   -999.0 mph 90% 0.00 in
21:22 16.0 °F 13.6 °F 23.53 in Calm   -999.0 mph 90% 0.00 in
21:37 16.0 °F 13.8 °F 23.53 in Calm   -999.0 mph 91% 0.00 in
21:52 15.1 °F 12.9 °F 23.54 in Calm   -999.0 mph 91% 0.00 in
22:08 14.7 °F 12.6 °F 23.54 in Calm   -999.0 mph 91% 0.00 in
22:23 14.5 °F 12.8 °F 23.53 in Calm   -999.0 mph 93% 0.00 in
22:38 13.8 °F 11.9 °F 23.53 in Calm   -999.0 mph 92% 0.00 in
22:53 13.6 °F 12.4 °F 23.53 in Calm   -999.0 mph 95% 0.00 in
23:08 13.1 °F 11.9 °F 23.53 in Calm   -999.0 mph 95% 0.00 in
23:24 12.6 °F 11.2 °F 23.53 in Calm   -999.0 mph 94% 0.00 in
23:39 12.4 °F 11.0 °F 23.53 in Calm   -999.0 mph 94% 0.00 in
23:54 12.0 °F 10.4 °F 23.53 in Calm   -999.0 mph 93% 0.00 in
Big Bear CA Weather